createdAt,value
2022-11-09T00:00:10.202Z,98.07
2022-11-09T00:05:12.183Z,97.57
2022-11-09T00:10:14.203Z,97.45
2022-11-09T00:15:16.141Z,96.39
2022-11-09T00:20:17.767Z,97.10
2022-11-09T00:25:19.342Z,96.81
2022-11-09T00:30:21.137Z,96.07
2022-11-09T00:35:22.799Z,96.18
2022-11-09T00:40:24.440Z,97.50
2022-11-09T00:45:25.988Z,96.58
2022-11-09T00:50:27.662Z,96.96
2022-11-09T00:55:29.306Z,97.26
2022-11-09T01:00:30.901Z,97.76
2022-11-09T01:05:32.484Z,99.07
2022-11-09T01:10:34.157Z,98.28
2022-11-09T01:15:41.656Z,98.07
2022-11-09T01:20:46.726Z,97.90
2022-11-09T01:25:48.360Z,97.38
2022-11-09T01:30:49.972Z,98.50
2022-11-09T01:35:51.508Z,97.16
2022-11-09T01:40:53.064Z,96.88
2022-11-09T01:46:06.660Z,97.51
2022-11-09T01:51:19.899Z,97.42
2022-11-09T01:56:21.635Z,97.70
2022-11-09T02:01:23.561Z,97.08
2022-11-09T02:06:28.975Z,96.74
2022-11-09T02:11:34.775Z,97.50
2022-11-09T02:16:37.765Z,97.42
2022-11-09T02:21:39.571Z,97.96
2022-11-09T02:26:50.612Z,97.41
2022-11-09T02:32:14.716Z,97.22
2022-11-09T02:37:26.848Z,97.29
2022-11-09T02:42:29.358Z,96.99
2022-11-09T02:47:30.929Z,97.30
2022-11-09T02:52:33.161Z,96.99
2022-11-09T02:57:34.866Z,97.27
2022-11-09T03:02:37.468Z,97.49
2022-11-09T03:07:40.240Z,97.55
2022-11-09T03:12:42.329Z,96.88
2022-11-09T03:17:46.862Z,98.58
2022-11-09T03:22:49.156Z,98.64
2022-11-09T03:27:51.156Z,98.76
2022-11-09T03:32:59.283Z,98.61
2022-11-09T03:38:01.018Z,98.56
2022-11-09T03:43:03.062Z,98.81
2022-11-09T03:48:06.334Z,97.87
2022-11-09T03:53:12.035Z,99.07
2022-11-09T03:58:13.666Z,98.04
2022-11-09T04:03:15.233Z,98.10
2022-11-09T04:08:16.924Z,98.33
2022-11-09T04:13:18.847Z,98.44
2022-11-09T04:18:20.722Z,97.91
2022-11-09T04:23:22.627Z,98.54
2022-11-09T04:28:24.331Z,97.27
2022-11-09T04:33:25.874Z,97.17
2022-11-09T04:38:27.407Z,97.58
2022-11-09T04:43:29.030Z,97.84
2022-11-09T04:48:31.543Z,96.53
2022-11-09T04:53:34.136Z,96.09
2022-11-09T04:58:35.725Z,96.04
2022-11-09T05:03:37.754Z,95.37
2022-11-09T05:08:39.367Z,95.65
2022-11-09T05:13:40.932Z,96.15
2022-11-09T05:18:42.596Z,95.96
2022-11-09T05:23:59.807Z,97.03
2022-11-09T05:29:04.355Z,95.41
2022-11-09T05:34:07.356Z,96.58
2022-11-09T05:39:09.033Z,95.34
2022-11-09T05:44:10.649Z,94.85
2022-11-09T05:49:12.224Z,94.76
2022-11-09T05:54:13.881Z,92.90
2022-11-09T05:59:15.544Z,93.51
2022-11-09T06:04:17.307Z,92.00
2022-11-09T06:09:18.974Z,92.82
2022-11-09T06:14:20.627Z,92.26
2022-11-09T06:19:22.173Z,92.37
2022-11-09T06:24:23.792Z,92.03
2022-11-09T06:29:25.350Z,92.04
2022-11-09T06:34:26.938Z,92.48
2022-11-09T06:39:28.543Z,93.45
2022-11-09T06:44:30.083Z,92.07
2022-11-09T06:49:31.711Z,92.67
2022-11-09T06:54:34.521Z,90.77
2022-11-09T06:59:36.138Z,90.58
2022-11-09T07:04:38.089Z,92.13
2022-11-09T07:09:39.710Z,91.23
2022-11-09T07:14:41.271Z,91.61
2022-11-09T07:19:42.764Z,91.17
2022-11-09T07:24:44.314Z,89.46
2022-11-09T07:29:46.082Z,89.57
2022-11-09T07:34:47.930Z,89.09
2022-11-09T07:39:49.432Z,88.98
2022-11-09T07:44:51.292Z,88.27
2022-11-09T07:49:52.813Z,84.95
2022-11-09T07:54:54.322Z,84.79
2022-11-09T07:59:56.036Z,83.56
2022-11-09T08:04:57.590Z,85.22
2022-11-09T08:09:59.181Z,83.91
2022-11-09T08:15:00.856Z,83.10
2022-11-09T08:20:02.427Z,82.68
2022-11-09T08:25:04.236Z,82.87
2022-11-09T08:30:24.219Z,82.25
2022-11-09T08:35:26.226Z,82.37
2022-11-09T08:40:27.884Z,83.10
2022-11-09T08:45:32.462Z,83.24
2022-11-09T08:50:36.251Z,83.84
2022-11-09T08:55:37.805Z,85.77
2022-11-09T09:00:39.347Z,85.17
2022-11-09T09:05:42.064Z,87.84
2022-11-09T09:10:43.572Z,87.77
2022-11-09T09:15:45.133Z,85.34
2022-11-09T09:20:46.684Z,82.97
2022-11-09T09:25:48.355Z,83.79
2022-11-09T09:30:49.976Z,83.39
2022-11-09T09:35:51.646Z,84.92
2022-11-09T09:41:04.175Z,83.80
2022-11-09T09:46:13.114Z,84.80
2022-11-09T09:51:29.629Z,87.00
2022-11-09T09:56:37.136Z,84.87
2022-11-09T10:01:40.634Z,85.35
2022-11-09T10:07:05.815Z,84.74
2022-11-09T10:12:29.654Z,82.90
2022-11-09T10:17:38.002Z,85.55
2022-11-09T10:23:12.018Z,85.16
2022-11-09T10:28:16.195Z,85.39
2022-11-09T10:33:21.438Z,83.21
2022-11-09T10:38:32.045Z,82.93
2022-11-09T10:43:51.980Z,82.92
2022-11-09T10:49:20.936Z,81.19
2022-11-09T10:54:41.436Z,82.21
2022-11-09T11:00:02.488Z,81.07
2022-11-09T11:05:26.653Z,81.26
2022-11-09T11:10:47.051Z,80.29
2022-11-09T11:16:29.133Z,84.68
2022-11-09T11:22:11.285Z,84.21
2022-11-09T11:27:46.325Z,81.35
2022-11-09T11:33:22.339Z,80.45
2022-11-09T11:39:01.600Z,80.75
2022-11-09T11:45:02.930Z,80.18
2022-11-09T11:50:54.840Z,80.13
2022-11-09T11:56:22.536Z,79.60
2022-11-09T12:01:51.732Z,80.10
2022-11-09T12:07:30.171Z,79.23
2022-11-09T12:13:14.914Z,78.46
2022-11-09T12:18:53.070Z,79.28
2022-11-09T12:24:22.399Z,80.00
2022-11-09T12:30:05.914Z,79.23
2022-11-09T12:35:38.437Z,79.78
2022-11-09T12:41:05.473Z,80.60
2022-11-09T12:46:32.156Z,80.45
2022-11-09T12:51:55.496Z,80.31
2022-11-09T12:57:28.768Z,81.67
2022-11-09T13:02:56.412Z,80.15
2022-11-09T13:08:29.410Z,79.23
2022-11-09T13:13:49.881Z,78.11
2022-11-09T13:19:10.821Z,77.39
2022-11-09T13:24:31.097Z,77.54
2022-11-09T13:29:56.381Z,78.66
2022-11-09T13:35:53.247Z,77.43
2022-11-09T13:41:34.701Z,77.21
2022-11-09T13:46:55.655Z,77.57
2022-11-09T13:52:43.836Z,76.77
2022-11-09T13:58:28.643Z,78.69
2022-11-09T14:03:51.920Z,78.93
2022-11-09T14:09:18.660Z,79.22
2022-11-09T14:14:41.745Z,79.28
2022-11-09T14:20:37.014Z,79.61
2022-11-09T14:25:57.680Z,79.46
2022-11-09T14:31:29.175Z,80.82
2022-11-09T14:36:49.205Z,81.18
2022-11-09T14:42:18.784Z,83.13
2022-11-09T14:47:39.514Z,83.35
2022-11-09T14:53:01.359Z,82.94
2022-11-09T14:58:23.354Z,83.72
2022-11-09T15:03:44.993Z,83.52
2022-11-09T15:09:08.869Z,85.50
2022-11-09T15:14:33.454Z,86.30
2022-11-09T15:20:23.502Z,85.46
2022-11-09T15:25:44.623Z,86.35
2022-11-09T15:31:13.418Z,86.41
2022-11-09T15:36:36.189Z,87.84
2022-11-09T15:41:57.751Z,90.18
2022-11-09T15:47:31.705Z,91.62
2022-11-09T15:52:52.520Z,93.97
2022-11-09T15:58:15.499Z,91.84
2022-11-09T16:03:35.481Z,92.08
2022-11-09T16:08:55.768Z,94.58
2022-11-09T16:14:17.799Z,94.04
2022-11-09T16:19:39.638Z,91.89
2022-11-09T16:24:59.789Z,91.26
2022-11-09T16:30:20.495Z,93.10
2022-11-09T16:35:40.814Z,91.83
2022-11-09T16:41:03.718Z,91.98
2022-11-09T16:46:28.185Z,91.41
2022-11-09T16:51:48.377Z,90.84
2022-11-09T16:57:08.693Z,91.11
2022-11-09T17:02:28.970Z,91.68
2022-11-09T17:07:49.270Z,91.47
2022-11-09T17:13:10.416Z,91.65
2022-11-09T17:18:31.029Z,92.40
2022-11-09T17:23:51.730Z,92.34
2022-11-09T17:29:12.755Z,91.46
2022-11-09T17:34:33.447Z,91.24
2022-11-09T17:39:53.746Z,92.62
2022-11-09T17:45:14.051Z,92.80
2022-11-09T17:50:34.727Z,93.06
2022-11-09T17:55:55.114Z,93.21
2022-11-09T18:01:19.852Z,91.48
2022-11-09T18:06:40.406Z,92.24
2022-11-09T18:12:00.415Z,93.07
2022-11-09T18:17:20.663Z,93.42
2022-11-09T18:22:40.815Z,95.56
2022-11-09T18:28:01.275Z,96.07
2022-11-09T18:33:21.495Z,96.10
2022-11-09T18:38:43.738Z,96.40
2022-11-09T18:44:04.102Z,95.95
2022-11-09T18:49:24.242Z,94.33
2022-11-09T18:54:44.526Z,95.51
2022-11-09T19:00:05.562Z,95.66
2022-11-09T19:05:25.919Z,96.69
2022-11-09T19:10:46.163Z,97.90
2022-11-09T19:16:10.162Z,98.75
2022-11-09T19:21:36.448Z,98.75
2022-11-09T19:26:56.768Z,99.23
2022-11-09T19:32:17.077Z,100.00
2022-11-09T19:37:37.302Z,99.73
2022-11-09T19:42:57.595Z,100.00
2022-11-09T19:48:18.121Z,100.00
2022-11-09T19:53:42.344Z,100.00
2022-11-09T19:59:04.359Z,100.00
2022-11-09T20:04:24.790Z,100.00
2022-11-09T20:09:45.018Z,100.00
2022-11-09T20:15:06.292Z,100.00
2022-11-09T20:20:26.279Z,100.00
2022-11-09T20:25:46.590Z,100.00
2022-11-09T20:31:12.535Z,100.00
2022-11-09T20:36:32.597Z,100.00
2022-11-09T20:41:52.861Z,100.00
2022-11-09T20:47:13.211Z,100.00
2022-11-09T20:52:33.584Z,100.00
2022-11-09T20:57:58.490Z,100.00
2022-11-09T21:03:18.902Z,100.00
2022-11-09T21:08:39.604Z,100.00
2022-11-09T21:14:00.195Z,100.00
2022-11-09T21:19:20.336Z,100.00
2022-11-09T21:24:59.238Z,100.00
2022-11-09T21:30:19.716Z,100.00
2022-11-09T21:35:40.271Z,100.00
2022-11-09T21:41:21.117Z,100.00
2022-11-09T21:46:42.938Z,100.00
2022-11-09T21:52:03.859Z,100.00
2022-11-09T21:57:24.109Z,100.00
2022-11-09T22:02:44.361Z,100.00
2022-11-09T22:08:04.873Z,100.00
2022-11-09T22:13:43.527Z,100.00
2022-11-09T22:19:22.380Z,100.00
2022-11-09T22:24:42.497Z,100.00
2022-11-09T22:30:03.039Z,100.00
2022-11-09T22:35:23.069Z,100.00
2022-11-09T22:40:43.302Z,100.00
2022-11-09T22:46:04.458Z,100.00
2022-11-09T22:51:24.897Z,100.00
2022-11-09T22:56:44.955Z,100.00
2022-11-09T23:02:05.073Z,100.00
2022-11-09T23:07:25.504Z,100.00
2022-11-09T23:12:45.836Z,100.00
2022-11-09T23:18:24.639Z,100.00
2022-11-09T23:23:45.168Z,100.00
2022-11-09T23:29:05.278Z,100.00
2022-11-09T23:34:25.862Z,100.00
2022-11-09T23:39:46.131Z,100.00
2022-11-09T23:45:07.637Z,100.00
2022-11-09T23:50:28.458Z,100.00
2022-11-09T23:55:48.758Z,100.00
